»·PEaware :: UPS24 KLAS-KSAN

UPS24 :: KLAS-KSAN

FLIGHT INFORMATION

Flight Status: Arrived
Operator:
United Parcel Service
More flights by this operator :: More flights under this callsign
Pilot: Ross C. (19908)
Aircraft: BOEING 757-200
(B752)
More flights by this aircraft type
Origin: KLAS McCarran Intl
United States
Destination: KSAN San Diego Intl-Lindbergh
United States
More flights between these airports :: More routes between these airports
Route: BOACH8 LVELL LUCKI1
File this flight plan on PilotEdge
Remarks: PBN / A1B3B4B5C4D4O4 DOF / 180801 REG / N538SB OPR / UPS PER / D RMK / TCAS SIMBRIEF
Altitude:
(Current/Filed)
32,000ft
Speed:
(Current/Filed)
459kts
Departed: 01-Aug-18 10:07 AM
Arrived: 01-Aug-18 10:54 AM
Distance/Time
Traveled:
225nm/0:47
Distance/Time
To Go:
Arrived

Flight Plot

Page will automatically refresh every two minutes.

Flight plan parsing failed; only flown route is shown


Map Options




Map Legend


Flown Route
Filed Route
Departure Airport
Arrival Airport
Navaid (VOR, NDB)
Fix

Horizontal Profiles

Position Reports

Time Latitude Longitude Heading Altitude Ground
Speed
01-Aug-18 09:39 36.080155 -115.125622 89 2040ft 0kts
01-Aug-18 09:40 36.080155 -115.125622 89 2040ft 0kts
01-Aug-18 09:41 36.080155 -115.125622 89 2040ft 0kts
01-Aug-18 09:42 36.080155 -115.125622 89 2040ft 0kts
01-Aug-18 09:43 36.080155 -115.125622 89 2040ft 0kts
01-Aug-18 09:44 36.080155 -115.125622 89 2040ft 0kts
01-Aug-18 09:45 36.080155 -115.125622 89 2040ft 0kts
01-Aug-18 09:46 36.080155 -115.125622 89 2040ft 0kts
01-Aug-18 09:47 36.080155 -115.125622 89 2040ft 0kts
01-Aug-18 09:48 36.080155 -115.125622 89 2040ft 0kts
01-Aug-18 09:49 36.080155 -115.125622 89 2040ft 0kts
01-Aug-18 09:50 36.080155 -115.125622 89 2040ft 0kts
01-Aug-18 09:51 36.080155 -115.125622 89 2040ft 0kts
01-Aug-18 09:52 36.080155 -115.125622 89 2040ft 0kts
01-Aug-18 09:53 36.080155 -115.125622 89 2040ft 0kts
01-Aug-18 09:54 36.080155 -115.125622 89 2040ft 0kts
01-Aug-18 09:55 36.080189 -115.125759 122 2040ft 2kts
01-Aug-18 09:56 36.080490 -115.126280 151 2041ft 2kts
01-Aug-18 09:57 36.080812 -115.126373 180 2040ft 0kts
01-Aug-18 09:58 36.080812 -115.126373 180 2040ft 0kts
01-Aug-18 09:59 36.080812 -115.126373 180 2040ft 0kts
01-Aug-18 10:00 36.080428 -115.126376 180 2041ft 5kts
01-Aug-18 10:01 36.078294 -115.127067 269 2046ft 6kts
01-Aug-18 10:02 36.078250 -115.134354 268 2066ft 27kts
01-Aug-18 10:03 36.078488 -115.135265 356 2069ft 2kts
01-Aug-18 10:04 36.078316 -115.131692 86 2059ft 31kts
01-Aug-18 10:05 36.077968 -115.122279 128 2040ft 6kts
01-Aug-18 10:06 36.077436 -115.121432 144 2040ft 0kts
01-Aug-18 10:07 36.076451 -115.121779 256 2042ft 6kts
01-Aug-18 10:08 36.076426 -115.127848 270 2052ft 91kts
01-Aug-18 10:09 36.076679 -115.181452 272 3594ft 175kts
01-Aug-18 10:10 36.075059 -115.244656 252 4927ft 204kts
01-Aug-18 10:11 36.029325 -115.277478 197 7019ft 207kts
01-Aug-18 10:12 35.966425 -115.303349 187 8155ft 280kts
01-Aug-18 10:13 35.890577 -115.312720 185 10329ft 316kts
01-Aug-18 10:14 35.793818 -115.309067 174 12352ft 364kts
01-Aug-18 10:15 35.692951 -115.298614 173 15251ft 373kts
01-Aug-18 10:16 35.588822 -115.300187 182 17827ft 384kts
01-Aug-18 10:17 35.481423 -115.305209 181 20150ft 394kts
01-Aug-18 10:18 35.379818 -115.309304 181 21873ft 408kts
01-Aug-18 10:19 35.272466 -115.313321 181 23888ft 414kts
01-Aug-18 10:20 35.162361 -115.317167 182 25545ft 424kts
01-Aug-18 10:21 35.046548 -115.321311 183 27151ft 432kts
01-Aug-18 10:22 34.927552 -115.325865 183 28555ft 440kts
01-Aug-18 10:23 34.817645 -115.329980 183 29703ft 446kts
01-Aug-18 10:24 34.698434 -115.369108 200 30871ft 450kts
01-Aug-18 10:25 34.581906 -115.419778 200 31901ft 443kts
01-Aug-18 10:26 34.466407 -115.469990 200 31902ft 443kts
01-Aug-18 10:27 34.350725 -115.520277 200 31954ft 446kts
01-Aug-18 10:28 34.244285 -115.592415 212 32062ft 442kts
01-Aug-18 10:29 34.152870 -115.664919 214 32065ft 442kts
01-Aug-18 10:30 34.054460 -115.744998 213 32064ft 442kts
01-Aug-18 10:31 33.972535 -115.810607 213 31152ft 422kts
01-Aug-18 10:32 33.868746 -115.894522 214 28960ft 419kts
01-Aug-18 10:33 33.789956 -115.959075 214 27300ft 412kts
01-Aug-18 10:34 33.690071 -116.039367 213 25185ft 403kts
01-Aug-18 10:35 33.613643 -116.101556 213 23554ft 395kts
01-Aug-18 10:36 33.523683 -116.173607 213 21660ft 386kts
01-Aug-18 10:37 33.421276 -116.256172 212 20212ft 386kts
01-Aug-18 10:38 33.353488 -116.315249 214 18090ft 384kts
01-Aug-18 10:39 33.267925 -116.384946 212 15552ft 360kts
01-Aug-18 10:40 33.185035 -116.446035 209 13477ft 349kts
01-Aug-18 10:41 33.110268 -116.502536 212 11753ft 336kts
01-Aug-18 10:42 33.034600 -116.562380 212 10264ft 316kts
01-Aug-18 10:43 32.967474 -116.615149 214 9533ft 286kts
01-Aug-18 10:44 32.905040 -116.664386 215 8172ft 285kts
01-Aug-18 10:45 32.841418 -116.714497 215 6910ft 280kts
01-Aug-18 10:46 32.778635 -116.763884 214 5684ft 275kts
01-Aug-18 10:47 32.716322 -116.813406 223 4468ft 268kts
01-Aug-18 10:48 32.689059 -116.882301 251 4489ft 194kts
01-Aug-18 10:49 32.672888 -116.938289 271 4142ft 178kts
01-Aug-18 10:50 32.685796 -116.993609 287 3383ft 175kts
01-Aug-18 10:51 32.699126 -117.048064 285 2565ft 174kts
01-Aug-18 10:52 32.711846 -117.100305 285 1646ft 165kts
01-Aug-18 10:53 32.724245 -117.151268 285 637ft 163kts
01-Aug-18 10:54 32.735077 -117.196032 285 23ft 48kts
01-Aug-18 10:55 32.734583 -117.198049 114 21ft 0kts
01-Aug-18 10:56 32.733916 -117.195422 107 24ft 15kts
01-Aug-18 10:57 32.733738 -117.191295 24 25ft 12kts
01-Aug-18 10:58 32.733654 -117.185261 106 25ft 28kts
01-Aug-18 10:59 32.734041 -117.183255 121 25ft 7kts
01-Aug-18 11:00 32.733984 -117.183103 111 25ft 0kts

Navigation Log

Ident Type
Flight plan parsing failed, navigation log unavailable